sensor_id;sensor_type;location;lat;lon;timestamp;P1;durP1;ratioP1;P2;durP2;ratioP2
11303;SDS011;5707;49.588;12.148;2023-04-28T00:01:41;4.03;;;2.90;;
11303;SDS011;5707;49.588;12.148;2023-04-28T00:04:06;2.75;;;2.55;;
11303;SDS011;5707;49.588;12.148;2023-04-28T00:06:32;2.78;;;2.58;;
11303;SDS011;5707;49.588;12.148;2023-04-28T00:08:58;3.08;;;2.83;;
11303;SDS011;5707;49.588;12.148;2023-04-28T00:11:24;3.00;;;2.80;;
11303;SDS011;5707;49.588;12.148;2023-04-28T00:13:49;3.45;;;3.15;;
11303;SDS011;5707;49.588;12.148;2023-04-28T00:16:15;3.95;;;2.97;;
11303;SDS011;5707;49.588;12.148;2023-04-28T00:18:41;4.55;;;3.08;;
11303;SDS011;5707;49.588;12.148;2023-04-28T00:21:07;3.33;;;2.90;;
11303;SDS011;5707;49.588;12.148;2023-04-28T00:23:32;2.47;;;2.28;;
11303;SDS011;5707;49.588;12.148;2023-04-28T00:25:58;3.35;;;2.20;;
11303;SDS011;5707;49.588;12.148;2023-04-28T00:28:23;3.85;;;2.70;;
11303;SDS011;5707;49.588;12.148;2023-04-28T00:30:49;2.70;;;2.47;;
11303;SDS011;5707;49.588;12.148;2023-04-28T00:33:14;3.08;;;2.45;;
11303;SDS011;5707;49.588;12.148;2023-04-28T00:35:40;4.20;;;2.65;;
11303;SDS011;5707;49.588;12.148;2023-04-28T00:38:06;5.45;;;2.58;;
11303;SDS011;5707;49.588;12.148;2023-04-28T00:40:40;3.13;;;2.88;;
11303;SDS011;5707;49.588;12.148;2023-04-28T00:43:06;4.72;;;3.05;;
11303;SDS011;5707;49.588;12.148;2023-04-28T00:45:32;3.13;;;2.83;;
11303;SDS011;5707;49.588;12.148;2023-04-28T00:47:57;2.58;;;2.38;;
11303;SDS011;5707;49.588;12.148;2023-04-28T00:50:24;5.68;;;2.97;;
11303;SDS011;5707;49.588;12.148;2023-04-28T00:52:50;3.17;;;2.67;;
11303;SDS011;5707;49.588;12.148;2023-04-28T00:55:17;3.05;;;2.75;;
11303;SDS011;5707;49.588;12.148;2023-04-28T00:57:43;3.40;;;3.08;;
11303;SDS011;5707;49.588;12.148;2023-04-28T01:00:09;10.80;;;7.90;;
11303;SDS011;5707;49.588;12.148;2023-04-28T01:02:35;4.97;;;4.40;;
11303;SDS011;5707;49.588;12.148;2023-04-28T01:05:01;5.68;;;3.70;;
11303;SDS011;5707;49.588;12.148;2023-04-28T01:07:27;2.70;;;2.50;;
11303;SDS011;5707;49.588;12.148;2023-04-28T01:09:53;5.20;;;2.53;;
11303;SDS011;5707;49.588;12.148;2023-04-28T01:12:19;2.95;;;2.50;;
11303;SDS011;5707;49.588;12.148;2023-04-28T01:14:45;2.15;;;2.05;;
11303;SDS011;5707;49.588;12.148;2023-04-28T01:17:12;2.60;;;2.40;;
11303;SDS011;5707;49.588;12.148;2023-04-28T01:19:38;2.55;;;2.35;;
11303;SDS011;5707;49.588;12.148;2023-04-28T01:22:03;3.55;;;2.60;;
11303;SDS011;5707;49.588;12.148;2023-04-28T01:24:29;3.60;;;2.17;;
11303;SDS011;5707;49.588;12.148;2023-04-28T01:26:54;2.70;;;2.50;;
11303;SDS011;5707;49.588;12.148;2023-04-28T01:29:20;3.92;;;2.47;;
11303;SDS011;5707;49.588;12.148;2023-04-28T01:31:46;4.35;;;2.38;;
11303;SDS011;5707;49.588;12.148;2023-04-28T01:34:11;4.05;;;2.25;;
11303;SDS011;5707;49.588;12.148;2023-04-28T01:36:37;2.75;;;2.25;;
11303;SDS011;5707;49.588;12.148;2023-04-28T01:39:03;2.95;;;2.30;;
11303;SDS011;5707;49.588;12.148;2023-04-28T01:41:29;2.25;;;2.08;;
11303;SDS011;5707;49.588;12.148;2023-04-28T01:43:54;2.38;;;2.20;;
11303;SDS011;5707;49.588;12.148;2023-04-28T01:46:20;3.58;;;2.40;;
11303;SDS011;5707;49.588;12.148;2023-04-28T01:48:46;2.10;;;1.85;;
11303;SDS011;5707;49.588;12.148;2023-04-28T01:51:11;3.05;;;2.50;;
11303;SDS011;5707;49.588;12.148;2023-04-28T01:53:37;2.53;;;2.28;;
11303;SDS011;5707;49.588;12.148;2023-04-28T01:56:03;2.75;;;2.50;;
11303;SDS011;5707;49.588;12.148;2023-04-28T01:58:29;2.45;;;2.20;;
11303;SDS011;5707;49.588;12.148;2023-04-28T02:00:54;2.35;;;2.13;;
11303;SDS011;5707;49.588;12.148;2023-04-28T02:03:20;2.92;;;2.30;;
11303;SDS011;5707;49.588;12.148;2023-04-28T02:05:45;2.50;;;2.30;;
11303;SDS011;5707;49.588;12.148;2023-04-28T02:08:11;2.42;;;2.15;;
11303;SDS011;5707;49.588;12.148;2023-04-28T02:10:36;3.08;;;2.63;;
11303;SDS011;5707;49.588;12.148;2023-04-28T02:13:02;3.20;;;2.90;;
11303;SDS011;5707;49.588;12.148;2023-04-28T02:15:28;2.97;;;2.78;;
11303;SDS011;5707;49.588;12.148;2023-04-28T02:17:53;3.35;;;3.10;;
11303;SDS011;5707;49.588;12.148;2023-04-28T02:20:19;6.13;;;3.47;;
11303;SDS011;5707;49.588;12.148;2023-04-28T02:22:44;3.33;;;3.00;;
11303;SDS011;5707;49.588;12.148;2023-04-28T02:25:10;2.85;;;2.63;;
11303;SDS011;5707;49.588;12.148;2023-04-28T02:27:36;3.78;;;2.65;;
11303;SDS011;5707;49.588;12.148;2023-04-28T02:30:05;5.85;;;3.08;;
11303;SDS011;5707;49.588;12.148;2023-04-28T02:32:31;3.05;;;2.83;;
11303;SDS011;5707;49.588;12.148;2023-04-28T02:34:57;4.63;;;2.70;;
11303;SDS011;5707;49.588;12.148;2023-04-28T02:37:22;2.63;;;2.42;;
11303;SDS011;5707;49.588;12.148;2023-04-28T02:39:48;4.68;;;3.50;;
11303;SDS011;5707;49.588;12.148;2023-04-28T02:42:13;3.47;;;3.20;;
11303;SDS011;5707;49.588;12.148;2023-04-28T02:44:39;4.15;;;3.50;;
11303;SDS011;5707;49.588;12.148;2023-04-28T02:47:05;4.40;;;4.00;;
11303;SDS011;5707;49.588;12.148;2023-04-28T02:49:30;3.15;;;2.83;;
11303;SDS011;5707;49.588;12.148;2023-04-28T02:51:56;5.95;;;2.92;;
11303;SDS011;5707;49.588;12.148;2023-04-28T02:54:21;3.22;;;2.92;;
11303;SDS011;5707;49.588;12.148;2023-04-28T02:56:56;3.50;;;3.20;;
11303;SDS011;5707;49.588;12.148;2023-04-28T02:59:22;3.58;;;3.22;;
11303;SDS011;5707;49.588;12.148;2023-04-28T03:01:49;6.43;;;3.45;;
11303;SDS011;5707;49.588;12.148;2023-04-28T03:04:15;2.83;;;2.65;;
11303;SDS011;5707;49.588;12.148;2023-04-28T03:06:41;2.70;;;2.35;;
11303;SDS011;5707;49.588;12.148;2023-04-28T03:09:07;3.28;;;3.05;;
11303;SDS011;5707;49.588;12.148;2023-04-28T03:11:34;4.18;;;2.60;;
11303;SDS011;5707;49.588;12.148;2023-04-28T03:13:59;3.60;;;3.30;;
11303;SDS011;5707;49.588;12.148;2023-04-28T03:16:25;4.05;;;3.70;;
11303;SDS011;5707;49.588;12.148;2023-04-28T03:18:51;3.33;;;3.00;;
11303;SDS011;5707;49.588;12.148;2023-04-28T03:21:17;4.10;;;3.72;;
11303;SDS011;5707;49.588;12.148;2023-04-28T03:23:42;4.43;;;3.13;;
11303;SDS011;5707;49.588;12.148;2023-04-28T03:26:08;2.95;;;2.75;;
11303;SDS011;5707;49.588;12.148;2023-04-28T03:28:33;3.35;;;3.05;;
11303;SDS011;5707;49.588;12.148;2023-04-28T03:30:59;3.22;;;2.63;;
11303;SDS011;5707;49.588;12.148;2023-04-28T03:33:24;2.97;;;2.70;;
11303;SDS011;5707;49.588;12.148;2023-04-28T03:35:50;4.32;;;2.90;;
11303;SDS011;5707;49.588;12.148;2023-04-28T03:38:17;2.67;;;2.47;;
11303;SDS011;5707;49.588;12.148;2023-04-28T03:40:43;3.40;;;3.10;;
11303;SDS011;5707;49.588;12.148;2023-04-28T03:43:08;3.03;;;2.80;;
11303;SDS011;5707;49.588;12.148;2023-04-28T03:45:34;3.95;;;2.88;;
11303;SDS011;5707;49.588;12.148;2023-04-28T03:47:59;3.55;;;2.97;;
11303;SDS011;5707;49.588;12.148;2023-04-28T03:50:25;3.70;;;3.30;;
11303;SDS011;5707;49.588;12.148;2023-04-28T03:52:50;3.10;;;2.80;;
11303;SDS011;5707;49.588;12.148;2023-04-28T03:55:16;5.03;;;3.33;;
11303;SDS011;5707;49.588;12.148;2023-04-28T03:57:41;2.85;;;2.65;;
11303;SDS011;5707;49.588;12.148;2023-04-28T04:00:07;4.05;;;2.80;;
11303;SDS011;5707;49.588;12.148;2023-04-28T04:02:34;3.17;;;2.97;;
11303;SDS011;5707;49.588;12.148;2023-04-28T04:04:59;4.28;;;3.95;;
11303;SDS011;5707;49.588;12.148;2023-04-28T04:07:25;4.47;;;2.80;;
11303;SDS011;5707;49.588;12.148;2023-04-28T04:09:50;4.03;;;3.72;;
11303;SDS011;5707;49.588;12.148;2023-04-28T04:12:16;4.00;;;3.70;;
11303;SDS011;5707;49.588;12.148;2023-04-28T04:14:42;4.63;;;2.95;;
11303;SDS011;5707;49.588;12.148;2023-04-28T04:17:08;3.88;;;3.53;;
11303;SDS011;5707;49.588;12.148;2023-04-28T04:19:33;2.90;;;2.70;;
11303;SDS011;5707;49.588;12.148;2023-04-28T04:21:59;2.92;;;2.33;;
11303;SDS011;5707;49.588;12.148;2023-04-28T04:24:24;3.17;;;2.60;;
11303;SDS011;5707;49.588;12.148;2023-04-28T04:26:50;3.13;;;2.67;;
11303;SDS011;5707;49.588;12.148;2023-04-28T04:29:16;4.93;;;2.55;;
11303;SDS011;5707;49.588;12.148;2023-04-28T04:31:41;2.47;;;2.33;;
11303;SDS011;5707;49.588;12.148;2023-04-28T04:34:09;3.17;;;2.60;;
11303;SDS011;5707;49.588;12.148;2023-04-28T04:36:35;3.30;;;2.40;;
11303;SDS011;5707;49.588;12.148;2023-04-28T04:39:00;3.13;;;2.42;;
11303;SDS011;5707;49.588;12.148;2023-04-28T04:41:26;4.38;;;3.08;;
11303;SDS011;5707;49.588;12.148;2023-04-28T04:43:52;3.22;;;2.50;;
11303;SDS011;5707;49.588;12.148;2023-04-28T04:46:17;3.25;;;3.03;;
11303;SDS011;5707;49.588;12.148;2023-04-28T04:48:43;2.80;;;2.58;;
11303;SDS011;5707;49.588;12.148;2023-04-28T04:51:09;3.05;;;2.58;;
11303;SDS011;5707;49.588;12.148;2023-04-28T04:53:35;3.00;;;2.75;;
11303;SDS011;5707;49.588;12.148;2023-04-28T04:56:01;3.30;;;2.78;;
11303;SDS011;5707;49.588;12.148;2023-04-28T04:58:26;3.60;;;2.35;;
11303;SDS011;5707;49.588;12.148;2023-04-28T05:00:52;2.42;;;2.22;;
11303;SDS011;5707;49.588;12.148;2023-04-28T05:03:17;3.08;;;2.58;;
11303;SDS011;5707;49.588;12.148;2023-04-28T05:05:44;2.63;;;2.25;;
11303;SDS011;5707;49.588;12.148;2023-04-28T05:08:10;2.97;;;2.42;;
11303;SDS011;5707;49.588;12.148;2023-04-28T05:10:36;2.70;;;2.45;;
11303;SDS011;5707;49.588;12.148;2023-04-28T05:13:01;2.20;;;2.10;;
11303;SDS011;5707;49.588;12.148;2023-04-28T05:15:27;3.83;;;2.88;;
11303;SDS011;5707;49.588;12.148;2023-04-28T05:17:53;2.80;;;2.60;;
11303;SDS011;5707;49.588;12.148;2023-04-28T05:20:19;5.35;;;2.38;;
11303;SDS011;5707;49.588;12.148;2023-04-28T05:22:44;3.25;;;2.70;;
11303;SDS011;5707;49.588;12.148;2023-04-28T05:25:10;3.13;;;2.40;;
11303;SDS011;5707;49.588;12.148;2023-04-28T05:27:35;2.87;;;2.47;;
11303;SDS011;5707;49.588;12.148;2023-04-28T05:30:08;3.45;;;2.10;;
11303;SDS011;5707;49.588;12.148;2023-04-28T05:32:34;2.78;;;2.08;;
11303;SDS011;5707;49.588;12.148;2023-04-28T05:35:00;3.97;;;2.25;;
11303;SDS011;5707;49.588;12.148;2023-04-28T05:37:26;2.75;;;2.05;;
11303;SDS011;5707;49.588;12.148;2023-04-28T05:39:52;3.25;;;2.75;;
11303;SDS011;5707;49.588;12.148;2023-04-28T05:42:17;2.30;;;2.10;;
11303;SDS011;5707;49.588;12.148;2023-04-28T05:44:43;4.10;;;2.72;;
11303;SDS011;5707;49.588;12.148;2023-04-28T05:47:09;3.20;;;2.60;;
11303;SDS011;5707;49.588;12.148;2023-04-28T05:49:35;2.50;;;2.30;;
11303;SDS011;5707;49.588;12.148;2023-04-28T05:52:01;2.90;;;2.00;;
11303;SDS011;5707;49.588;12.148;2023-04-28T05:54:27;2.03;;;1.85;;
11303;SDS011;5707;49.588;12.148;2023-04-28T05:56:53;4.05;;;2.20;;
11303;SDS011;5707;49.588;12.148;2023-04-28T05:59:18;2.53;;;2.15;;
11303;SDS011;5707;49.588;12.148;2023-04-28T06:01:44;2.75;;;1.85;;
11303;SDS011;5707;49.588;12.148;2023-04-28T06:04:10;2.33;;;2.13;;
11303;SDS011;5707;49.588;12.148;2023-04-28T06:06:35;2.30;;;2.10;;
11303;SDS011;5707;49.588;12.148;2023-04-28T06:09:01;2.58;;;2.17;;
11303;SDS011;5707;49.588;12.148;2023-04-28T06:11:27;2.25;;;2.05;;
11303;SDS011;5707;49.588;12.148;2023-04-28T06:13:53;3.20;;;2.28;;
11303;SDS011;5707;49.588;12.148;2023-04-28T06:16:19;3.08;;;2.50;;
11303;SDS011;5707;49.588;12.148;2023-04-28T06:18:45;6.53;;;2.70;;
11303;SDS011;5707;49.588;12.148;2023-04-28T06:21:11;2.85;;;2.60;;
11303;SDS011;5707;49.588;12.148;2023-04-28T06:23:37;5.57;;;2.85;;
11303;SDS011;5707;49.588;12.148;2023-04-28T06:26:04;4.82;;;2.60;;
11303;SDS011;5707;49.588;12.148;2023-04-28T06:28:30;3.80;;;3.30;;
11303;SDS011;5707;49.588;12.148;2023-04-28T06:30:56;3.25;;;2.80;;
11303;SDS011;5707;49.588;12.148;2023-04-28T07:13:40;3.13;;;2.83;;
11303;SDS011;5707;49.588;12.148;2023-04-28T07:16:06;2.70;;;2.50;;
11303;SDS011;5707;49.588;12.148;2023-04-28T07:18:32;2.95;;;2.25;;
11303;SDS011;5707;49.588;12.148;2023-04-28T07:20:57;2.42;;;2.22;;
11303;SDS011;5707;49.588;12.148;2023-04-28T07:23:23;2.50;;;2.30;;
11303;SDS011;5707;49.588;12.148;2023-04-28T07:25:48;3.95;;;2.85;;
11303;SDS011;5707;49.588;12.148;2023-04-28T07:28:14;3.67;;;3.35;;
11303;SDS011;5707;49.588;12.148;2023-04-28T07:30:39;3.30;;;2.90;;
11303;SDS011;5707;49.588;12.148;2023-04-28T07:33:05;3.53;;;2.88;;
11303;SDS011;5707;49.588;12.148;2023-04-28T07:35:30;5.35;;;4.15;;
11303;SDS011;5707;49.588;12.148;2023-04-28T07:37:56;5.82;;;3.63;;
11303;SDS011;5707;49.588;12.148;2023-04-28T07:40:22;4.25;;;3.05;;
11303;SDS011;5707;49.588;12.148;2023-04-28T07:42:48;8.13;;;4.95;;
11303;SDS011;5707;49.588;12.148;2023-04-28T07:45:14;4.68;;;4.03;;
11303;SDS011;5707;49.588;12.148;2023-04-28T07:47:40;6.30;;;3.75;;
11303;SDS011;5707;49.588;12.148;2023-04-28T07:50:06;4.05;;;3.65;;
11303;SDS011;5707;49.588;12.148;2023-04-28T07:52:32;7.43;;;3.15;;
11303;SDS011;5707;49.588;12.148;2023-04-28T07:54:58;6.32;;;3.25;;
11303;SDS011;5707;49.588;12.148;2023-04-28T07:57:24;5.15;;;3.67;;
11303;SDS011;5707;49.588;12.148;2023-04-28T07:59:50;4.47;;;2.42;;
11303;SDS011;5707;49.588;12.148;2023-04-28T08:02:16;5.07;;;2.72;;
11303;SDS011;5707;49.588;12.148;2023-04-28T08:04:43;2.10;;;1.90;;
11303;SDS011;5707;49.588;12.148;2023-04-28T08:07:09;4.78;;;2.72;;
11303;SDS011;5707;49.588;12.148;2023-04-28T08:09:34;4.20;;;2.92;;
11303;SDS011;5707;49.588;12.148;2023-04-28T08:12:00;4.72;;;2.65;;
11303;SDS011;5707;49.588;12.148;2023-04-28T08:14:26;3.38;;;3.08;;
11303;SDS011;5707;49.588;12.148;2023-04-28T08:16:52;6.53;;;3.35;;
11303;SDS011;5707;49.588;12.148;2023-04-28T08:19:18;2.88;;;2.47;;
11303;SDS011;5707;49.588;12.148;2023-04-28T08:21:44;3.42;;;2.60;;
11303;SDS011;5707;49.588;12.148;2023-04-28T08:24:10;2.55;;;2.22;;
11303;SDS011;5707;49.588;12.148;2023-04-28T08:26:36;3.67;;;3.15;;
11303;SDS011;5707;49.588;12.148;2023-04-28T08:29:02;6.05;;;2.80;;
11303;SDS011;5707;49.588;12.148;2023-04-28T08:31:28;3.63;;;3.13;;
11303;SDS011;5707;49.588;12.148;2023-04-28T08:33:53;2.50;;;2.30;;
11303;SDS011;5707;49.588;12.148;2023-04-28T08:36:19;7.10;;;2.78;;
11303;SDS011;5707;49.588;12.148;2023-04-28T08:38:45;2.85;;;2.38;;
11303;SDS011;5707;49.588;12.148;2023-04-28T08:41:14;8.00;;;2.35;;
11303;SDS011;5707;49.588;12.148;2023-04-28T08:43:40;5.00;;;2.28;;
11303;SDS011;5707;49.588;12.148;2023-04-28T08:46:07;8.82;;;2.60;;
11303;SDS011;5707;49.588;12.148;2023-04-28T08:48:38;4.25;;;2.22;;
11303;SDS011;5707;49.588;12.148;2023-04-28T08:51:06;4.43;;;2.47;;
11303;SDS011;5707;49.588;12.148;2023-04-28T08:53:31;3.08;;;2.50;;
11303;SDS011;5707;49.588;12.148;2023-04-28T08:56:02;3.40;;;2.42;;
11303;SDS011;5707;49.588;12.148;2023-04-28T08:58:30;5.38;;;2.60;;
11303;SDS011;5707;49.588;12.148;2023-04-28T09:00:59;3.08;;;2.78;;
11303;SDS011;5707;49.588;12.148;2023-04-28T09:03:26;3.42;;;3.13;;
11303;SDS011;5707;49.588;12.148;2023-04-28T09:05:52;3.33;;;3.03;;
11303;SDS011;5707;49.588;12.148;2023-04-28T09:08:18;5.22;;;2.67;;
11303;SDS011;5707;49.588;12.148;2023-04-28T09:10:43;3.80;;;3.05;;
11303;SDS011;5707;49.588;12.148;2023-04-28T09:13:09;3.47;;;2.75;;
11303;SDS011;5707;49.588;12.148;2023-04-28T09:15:48;3.22;;;2.92;;
11303;SDS011;5707;49.588;12.148;2023-04-28T09:18:14;4.05;;;2.85;;
11303;SDS011;5707;49.588;12.148;2023-04-28T09:20:40;3.38;;;2.97;;
11303;SDS011;5707;49.588;12.148;2023-04-28T09:23:15;3.83;;;3.25;;
11303;SDS011;5707;49.588;12.148;2023-04-28T09:28:23;5.13;;;3.63;;
11303;SDS011;5707;49.588;12.148;2023-04-28T09:30:48;4.93;;;3.88;;
11303;SDS011;5707;49.588;12.148;2023-04-28T09:33:14;4.30;;;3.95;;
11303;SDS011;5707;49.588;12.148;2023-04-28T09:35:40;4.20;;;3.40;;
11303;SDS011;5707;49.588;12.148;2023-04-28T09:38:06;3.45;;;3.15;;
11303;SDS011;5707;49.588;12.148;2023-04-28T09:40:32;5.07;;;3.70;;
11303;SDS011;5707;49.588;12.148;2023-04-28T09:43:25;4.05;;;3.50;;
11303;SDS011;5707;49.588;12.148;2023-04-28T09:45:51;3.25;;;3.00;;
11303;SDS011;5707;49.588;12.148;2023-04-28T09:48:17;4.93;;;3.22;;
11303;SDS011;5707;49.588;12.148;2023-04-28T09:50:52;3.35;;;3.15;;
11303;SDS011;5707;49.588;12.148;2023-04-28T09:53:19;3.75;;;3.30;;
11303;SDS011;5707;49.588;12.148;2023-04-28T09:55:46;3.70;;;3.40;;
11303;SDS011;5707;49.588;12.148;2023-04-28T09:58:14;4.07;;;3.70;;
11303;SDS011;5707;49.588;12.148;2023-04-28T10:00:43;4.07;;;3.67;;
11303;SDS011;5707;49.588;12.148;2023-04-28T10:03:09;7.70;;;3.90;;
11303;SDS011;5707;49.588;12.148;2023-04-28T10:05:36;6.50;;;4.03;;
11303;SDS011;5707;49.588;12.148;2023-04-28T10:08:03;5.43;;;4.50;;
11303;SDS011;5707;49.588;12.148;2023-04-28T10:10:29;4.30;;;3.90;;
11303;SDS011;5707;49.588;12.148;2023-04-28T10:12:55;5.70;;;4.20;;
11303;SDS011;5707;49.588;12.148;2023-04-28T10:15:21;6.10;;;4.60;;
11303;SDS011;5707;49.588;12.148;2023-04-28T10:17:47;5.78;;;4.30;;
11303;SDS011;5707;49.588;12.148;2023-04-28T10:20:15;4.30;;;3.83;;
11303;SDS011;5707;49.588;12.148;2023-04-28T10:27:56;3.67;;;3.20;;
11303;SDS011;5707;49.588;12.148;2023-04-28T10:30:23;5.05;;;4.65;;
11303;SDS011;5707;49.588;12.148;2023-04-28T10:35:42;4.20;;;3.67;;
11303;SDS011;5707;49.588;12.148;2023-04-28T10:38:12;4.90;;;4.47;;
11303;SDS011;5707;49.588;12.148;2023-04-28T10:43:09;4.65;;;4.25;;
11303;SDS011;5707;49.588;12.148;2023-04-28T10:48:07;5.35;;;4.88;;
11303;SDS011;5707;49.588;12.148;2023-04-28T10:50:32;4.70;;;4.35;;
11303;SDS011;5707;49.588;12.148;2023-04-28T10:53:01;5.43;;;4.85;;
11303;SDS011;5707;49.588;12.148;2023-04-28T10:55:27;3.95;;;3.65;;
11303;SDS011;5707;49.588;12.148;2023-04-28T10:58:57;4.40;;;3.72;;
11303;SDS011;5707;49.588;12.148;2023-04-28T11:00:51;4.07;;;3.63;;
11303;SDS011;5707;49.588;12.148;2023-04-28T11:09:01;3.42;;;3.05;;
11303;SDS011;5707;49.588;12.148;2023-04-28T11:11:38;4.50;;;3.60;;
11303;SDS011;5707;49.588;12.148;2023-04-28T11:16:54;4.72;;;4.22;;
11303;SDS011;5707;49.588;12.148;2023-04-28T11:19:27;4.13;;;3.83;;
11303;SDS011;5707;49.588;12.148;2023-04-28T11:21:55;4.50;;;4.13;;
11303;SDS011;5707;49.588;12.148;2023-04-28T11:24:22;4.65;;;4.25;;
11303;SDS011;5707;49.588;12.148;2023-04-28T11:26:49;5.40;;;5.10;;
11303;SDS011;5707;49.588;12.148;2023-04-28T11:29:16;4.22;;;4.00;;
11303;SDS011;5707;49.588;12.148;2023-04-28T11:31:49;4.88;;;4.40;;
11303;SDS011;5707;49.588;12.148;2023-04-28T11:34:17;6.40;;;3.60;;
11303;SDS011;5707;49.588;12.148;2023-04-28T11:36:45;3.97;;;3.67;;
11303;SDS011;5707;49.588;12.148;2023-04-28T11:39:11;3.90;;;3.60;;
11303;SDS011;5707;49.588;12.148;2023-04-28T11:46:47;4.07;;;3.78;;
11303;SDS011;5707;49.588;12.148;2023-04-28T11:49:19;3.70;;;3.38;;
11303;SDS011;5707;49.588;12.148;2023-04-28T11:51:46;3.72;;;3.42;;
11303;SDS011;5707;49.588;12.148;2023-04-28T11:54:16;3.70;;;3.40;;
11303;SDS011;5707;49.588;12.148;2023-04-28T11:56:53;3.72;;;3.42;;
11303;SDS011;5707;49.588;12.148;2023-04-28T11:59:27;4.00;;;3.70;;
11303;SDS011;5707;49.588;12.148;2023-04-28T12:01:56;4.18;;;3.88;;
11303;SDS011;5707;49.588;12.148;2023-04-28T12:07:01;4.03;;;3.72;;
11303;SDS011;5707;49.588;12.148;2023-04-28T12:09:29;5.45;;;4.25;;
11303;SDS011;5707;49.588;12.148;2023-04-28T12:12:05;4.07;;;3.78;;
11303;SDS011;5707;49.588;12.148;2023-04-28T12:17:33;3.00;;;2.80;;
11303;SDS011;5707;49.588;12.148;2023-04-28T12:20:01;3.35;;;3.13;;
11303;SDS011;5707;49.588;12.148;2023-04-28T12:22:41;3.90;;;3.63;;
11303;SDS011;5707;49.588;12.148;2023-04-28T12:25:12;4.30;;;3.45;;
11303;SDS011;5707;49.588;12.148;2023-04-28T12:27:40;3.53;;;3.22;;
11303;SDS011;5707;49.588;12.148;2023-04-28T12:32:47;3.80;;;3.60;;
11303;SDS011;5707;49.588;12.148;2023-04-28T12:35:13;4.70;;;4.30;;
11303;SDS011;5707;49.588;12.148;2023-04-28T12:37:38;3.88;;;3.67;;
11303;SDS011;5707;49.588;12.148;2023-04-28T12:40:05;4.18;;;3.80;;
11303;SDS011;5707;49.588;12.148;2023-04-28T12:42:32;5.10;;;4.68;;
11303;SDS011;5707;49.588;12.148;2023-04-28T12:44:58;4.10;;;3.80;;
11303;SDS011;5707;49.588;12.148;2023-04-28T12:47:24;3.80;;;3.60;;
11303;SDS011;5707;49.588;12.148;2023-04-28T12:49:49;4.32;;;4.03;;
11303;SDS011;5707;49.588;12.148;2023-04-28T12:52:17;4.40;;;4.10;;
11303;SDS011;5707;49.588;12.148;2023-04-28T12:54:43;4.43;;;4.13;;
11303;SDS011;5707;49.588;12.148;2023-04-28T12:57:12;5.00;;;4.43;;
11303;SDS011;5707;49.588;12.148;2023-04-28T12:59:42;4.45;;;4.10;;
11303;SDS011;5707;49.588;12.148;2023-04-28T13:02:08;5.53;;;3.97;;
11303;SDS011;5707;49.588;12.148;2023-04-28T13:04:34;4.43;;;4.10;;
11303;SDS011;5707;49.588;12.148;2023-04-28T13:07:00;3.80;;;3.50;;
11303;SDS011;5707;49.588;12.148;2023-04-28T13:09:26;5.65;;;3.95;;
11303;SDS011;5707;49.588;12.148;2023-04-28T13:11:52;4.15;;;3.85;;
11303;SDS011;5707;49.588;12.148;2023-04-28T13:14:18;4.47;;;4.07;;
11303;SDS011;5707;49.588;12.148;2023-04-28T13:16:44;3.83;;;3.53;;
11303;SDS011;5707;49.588;12.148;2023-04-28T13:19:11;4.15;;;3.85;;
11303;SDS011;5707;49.588;12.148;2023-04-28T13:21:41;5.82;;;4.15;;
11303;SDS011;5707;49.588;12.148;2023-04-28T13:24:07;3.42;;;3.22;;
11303;SDS011;5707;49.588;12.148;2023-04-28T13:26:34;4.03;;;3.70;;
11303;SDS011;5707;49.588;12.148;2023-04-28T13:29:00;4.18;;;3.63;;
11303;SDS011;5707;49.588;12.148;2023-04-28T13:31:27;4.78;;;4.47;;
11303;SDS011;5707;49.588;12.148;2023-04-28T13:33:56;3.85;;;3.55;;
11303;SDS011;5707;49.588;12.148;2023-04-28T13:36:23;3.60;;;3.40;;
11303;SDS011;5707;49.588;12.148;2023-04-28T13:38:49;3.35;;;3.15;;
11303;SDS011;5707;49.588;12.148;2023-04-28T13:41:15;4.25;;;3.95;;
11303;SDS011;5707;49.588;12.148;2023-04-28T13:43:42;4.90;;;4.50;;
11303;SDS011;5707;49.588;12.148;2023-04-28T13:46:08;3.90;;;3.65;;
11303;SDS011;5707;49.588;12.148;2023-04-28T13:48:34;4.38;;;4.07;;
11303;SDS011;5707;49.588;12.148;2023-04-28T13:51:00;4.50;;;4.00;;
11303;SDS011;5707;49.588;12.148;2023-04-28T13:53:29;5.20;;;4.80;;
11303;SDS011;5707;49.588;12.148;2023-04-28T13:55:55;6.05;;;5.70;;
11303;SDS011;5707;49.588;12.148;2023-04-28T13:58:30;7.35;;;6.85;;
11303;SDS011;5707;49.588;12.148;2023-04-28T14:00:56;5.43;;;5.03;;
11303;SDS011;5707;49.588;12.148;2023-04-28T14:03:22;5.65;;;5.15;;
11303;SDS011;5707;49.588;12.148;2023-04-28T14:05:48;5.93;;;5.53;;
11303;SDS011;5707;49.588;12.148;2023-04-28T14:08:17;5.78;;;5.47;;
11303;SDS011;5707;49.588;12.148;2023-04-28T14:10:43;8.30;;;5.90;;
11303;SDS011;5707;49.588;12.148;2023-04-28T14:13:09;6.80;;;6.30;;
11303;SDS011;5707;49.588;12.148;2023-04-28T14:15:35;7.60;;;7.05;;
11303;SDS011;5707;49.588;12.148;2023-04-28T14:18:01;7.10;;;6.55;;
11303;SDS011;5707;49.588;12.148;2023-04-28T14:20:27;6.47;;;5.97;;
11303;SDS011;5707;49.588;12.148;2023-04-28T14:22:53;6.63;;;6.15;;
11303;SDS011;5707;49.588;12.148;2023-04-28T14:25:18;7.93;;;7.43;;
11303;SDS011;5707;49.588;12.148;2023-04-28T14:27:44;8.32;;;7.70;;
11303;SDS011;5707;49.588;12.148;2023-04-28T14:30:11;8.00;;;7.40;;
11303;SDS011;5707;49.588;12.148;2023-04-28T14:32:36;7.75;;;7.25;;
11303;SDS011;5707;49.588;12.148;2023-04-28T14:35:02;8.07;;;7.57;;
11303;SDS011;5707;49.588;12.148;2023-04-28T14:37:30;7.80;;;7.20;;
11303;SDS011;5707;49.588;12.148;2023-04-28T14:39:56;9.07;;;8.25;;
11303;SDS011;5707;49.588;12.148;2023-04-28T14:42:27;7.80;;;7.30;;
11303;SDS011;5707;49.588;12.148;2023-04-28T14:44:57;7.55;;;7.05;;
11303;SDS011;5707;49.588;12.148;2023-04-28T14:47:23;8.27;;;6.97;;
11303;SDS011;5707;49.588;12.148;2023-04-28T14:49:49;7.28;;;6.78;;
11303;SDS011;5707;49.588;12.148;2023-04-28T14:52:17;7.47;;;6.93;;
11303;SDS011;5707;49.588;12.148;2023-04-28T14:54:43;7.63;;;6.93;;
11303;SDS011;5707;49.588;12.148;2023-04-28T14:57:08;7.63;;;7.13;;
11303;SDS011;5707;49.588;12.148;2023-04-28T14:59:34;7.45;;;6.95;;
11303;SDS011;5707;49.588;12.148;2023-04-28T15:01:59;7.65;;;7.13;;
11303;SDS011;5707;49.588;12.148;2023-04-28T15:04:25;8.45;;;7.88;;
11303;SDS011;5707;49.588;12.148;2023-04-28T15:06:54;7.45;;;6.95;;
11303;SDS011;5707;49.588;12.148;2023-04-28T15:09:21;7.57;;;6.95;;
11303;SDS011;5707;49.588;12.148;2023-04-28T15:11:47;7.85;;;7.35;;
11303;SDS011;5707;49.588;12.148;2023-04-28T15:14:13;7.93;;;7.20;;
11303;SDS011;5707;49.588;12.148;2023-04-28T15:16:39;8.73;;;7.97;;
11303;SDS011;5707;49.588;12.148;2023-04-28T15:19:04;7.50;;;7.00;;
11303;SDS011;5707;49.588;12.148;2023-04-28T15:21:30;7.55;;;7.05;;
11303;SDS011;5707;49.588;12.148;2023-04-28T15:23:56;8.30;;;7.70;;
11303;SDS011;5707;49.588;12.148;2023-04-28T15:26:23;8.65;;;8.05;;
11303;SDS011;5707;49.588;12.148;2023-04-28T15:28:49;7.90;;;7.40;;
11303;SDS011;5707;49.588;12.148;2023-04-28T15:31:15;7.95;;;7.45;;
11303;SDS011;5707;49.588;12.148;2023-04-28T15:33:41;8.80;;;8.15;;
11303;SDS011;5707;49.588;12.148;2023-04-28T15:36:06;8.05;;;7.45;;
11303;SDS011;5707;49.588;12.148;2023-04-28T15:38:32;9.05;;;8.35;;
11303;SDS011;5707;49.588;12.148;2023-04-28T15:40:58;10.00;;;9.35;;
11303;SDS011;5707;49.588;12.148;2023-04-28T15:43:24;11.50;;;10.70;;
11303;SDS011;5707;49.588;12.148;2023-04-28T15:45:50;9.95;;;9.35;;
11303;SDS011;5707;49.588;12.148;2023-04-28T15:48:16;10.00;;;9.35;;
11303;SDS011;5707;49.588;12.148;2023-04-28T15:50:41;9.88;;;9.07;;
11303;SDS011;5707;49.588;12.148;2023-04-28T15:53:07;8.70;;;8.10;;
11303;SDS011;5707;49.588;12.148;2023-04-28T15:55:33;9.13;;;8.52;;
11303;SDS011;5707;49.588;12.148;2023-04-28T15:57:58;9.43;;;8.73;;
11303;SDS011;5707;49.588;12.148;2023-04-28T16:00:25;10.40;;;9.77;;
11303;SDS011;5707;49.588;12.148;2023-04-28T16:02:51;9.88;;;9.18;;